createdAt,value
2018-04-14T00:00:59.606Z,11.62
2018-04-14T00:03:32.856Z,11.64
2018-04-14T00:06:06.136Z,11.66
2018-04-14T00:08:39.379Z,11.59
2018-04-14T00:11:12.646Z,11.54
2018-04-14T00:13:45.900Z,11.44
2018-04-14T00:16:19.941Z,11.39
2018-04-14T00:18:53.187Z,11.42
2018-04-14T00:21:26.451Z,11.50
2018-04-14T00:23:59.715Z,11.48
2018-04-14T00:26:32.984Z,11.36
2018-04-14T00:29:07.002Z,11.33
2018-04-14T00:31:41.030Z,11.32
2018-04-14T00:34:14.283Z,11.28
2018-04-14T00:36:47.552Z,11.28
2018-04-14T00:39:20.800Z,11.25
2018-04-14T00:41:54.083Z,11.22
2018-04-14T00:44:27.343Z,11.15
2018-04-14T00:47:00.787Z,11.08
2018-04-14T00:49:34.044Z,11.17
2018-04-14T00:52:07.316Z,11.12
2018-04-14T00:54:40.591Z,11.14
2018-04-14T00:57:18.588Z,11.14
2018-04-14T00:59:51.848Z,11.06
2018-04-14T01:02:25.126Z,11.08
2018-04-14T01:04:58.384Z,11.09
2018-04-14T01:07:31.657Z,11.08
2018-04-14T01:10:04.915Z,10.98
2018-04-14T01:12:38.955Z,10.96
2018-04-14T01:15:12.970Z,10.94
2018-04-14T01:17:46.251Z,10.86
2018-04-14T01:20:20.272Z,10.83
2018-04-14T01:22:53.546Z,10.81
2018-04-14T01:25:26.806Z,10.83
2018-04-14T01:28:00.075Z,10.79
2018-04-14T01:30:33.323Z,10.70
2018-04-14T01:33:06.591Z,10.68
2018-04-14T01:35:39.856Z,10.67
2018-04-14T01:38:13.128Z,10.55
2018-04-14T01:40:47.149Z,10.65
2018-04-14T01:43:20.427Z,10.53
2018-04-14T01:45:54.451Z,10.48
2018-04-14T01:48:27.728Z,10.46
2018-04-14T01:51:01.756Z,10.47
2018-04-14T01:53:35.787Z,10.33
2018-04-14T01:56:09.049Z,10.28
2018-04-14T01:58:43.093Z,10.26
2018-04-14T02:01:16.352Z,10.24
2018-04-14T02:03:49.620Z,10.23
2018-04-14T02:06:22.867Z,10.18
2018-04-14T02:08:56.161Z,10.19
2018-04-14T02:11:29.408Z,10.17
2018-04-14T02:14:02.679Z,10.17
2018-04-14T02:16:35.931Z,10.17
2018-04-14T02:19:09.200Z,10.08
2018-04-14T02:21:43.220Z,10.03
2018-04-14T02:24:17.254Z,10.02
2018-04-14T02:26:50.507Z,9.99
2018-04-14T02:29:23.780Z,9.97
2018-04-14T02:31:57.032Z,9.99
2018-04-14T02:34:30.304Z,9.93
2018-04-14T02:37:04.327Z,9.95
2018-04-14T02:39:37.596Z,9.87
2018-04-14T02:42:10.836Z,9.88
2018-04-14T02:44:44.102Z,9.80
2018-04-14T02:47:18.107Z,9.75
2018-04-14T02:49:52.148Z,9.80
2018-04-14T02:52:25.395Z,9.86
2018-04-14T02:54:58.659Z,9.85
2018-04-14T02:57:31.911Z,9.78
2018-04-14T03:00:05.945Z,9.85
2018-04-14T03:02:39.187Z,9.85
2018-04-14T03:05:12.455Z,9.78
2018-04-14T03:07:45.714Z,9.72
2018-04-14T03:10:19.796Z,9.68
2018-04-14T03:12:52.985Z,9.62
2018-04-14T03:15:26.243Z,9.54
2018-04-14T03:17:59.508Z,9.51
2018-04-14T03:20:32.756Z,9.47
2018-04-14T03:23:06.041Z,9.46
2018-04-14T03:25:39.289Z,9.48
2018-04-14T03:28:12.556Z,9.48
2018-04-14T03:30:45.795Z,9.39
2018-04-14T03:33:19.095Z,9.36
2018-04-14T03:35:53.301Z,9.34
2018-04-14T03:38:26.567Z,9.24
2018-04-14T03:41:00.579Z,9.27
2018-04-14T03:43:34.613Z,9.24
2018-04-14T03:46:07.858Z,9.20
2018-04-14T03:48:41.120Z,9.17
2018-04-14T03:51:14.367Z,9.22
2018-04-14T03:53:48.394Z,9.25
2018-04-14T03:56:21.637Z,9.27
2018-04-14T03:58:54.908Z,9.35
2018-04-14T04:01:28.152Z,9.47
2018-04-14T04:04:02.178Z,9.46
2018-04-14T04:06:35.429Z,9.46
2018-04-14T04:09:08.703Z,9.39
2018-04-14T04:11:41.952Z,9.33
2018-04-14T04:14:15.214Z,9.34
2018-04-14T04:16:48.462Z,9.29
2018-04-14T04:19:39.620Z,9.25
2018-04-14T04:22:30.831Z,9.23
2018-04-14T04:25:22.058Z,9.22
2018-04-14T04:27:55.311Z,9.20
2018-04-14T04:30:28.571Z,9.21
2018-04-14T04:33:02.584Z,9.22
2018-04-14T04:35:36.607Z,9.15
2018-04-14T04:38:14.734Z,9.13
2018-04-14T04:40:47.976Z,9.13
2018-04-14T04:43:21.239Z,9.08
2018-04-14T04:45:54.488Z,9.09
2018-04-14T04:48:28.533Z,9.11
2018-04-14T04:51:01.785Z,9.14
2018-04-14T04:53:35.814Z,9.19
2018-04-14T04:56:09.072Z,9.21
2018-04-14T04:58:42.344Z,9.13
2018-04-14T05:01:15.593Z,9.12
2018-04-14T05:03:48.873Z,9.17
2018-04-14T05:06:22.872Z,9.23
2018-04-14T05:08:56.913Z,9.31
2018-04-14T05:11:30.155Z,9.48
2018-04-14T05:14:03.425Z,9.63
2018-04-14T05:16:36.671Z,9.65
2018-04-14T05:19:10.718Z,9.62
2018-04-14T05:21:43.955Z,9.67
2018-04-14T05:24:17.224Z,9.72
2018-04-14T05:26:50.472Z,9.76
2018-04-14T05:29:24.507Z,9.80
2018-04-14T05:31:57.755Z,9.79
2018-04-14T05:34:31.007Z,9.74
2018-04-14T05:37:04.269Z,9.80
2018-04-14T05:39:38.292Z,9.89
2018-04-14T05:42:11.547Z,9.94
2018-04-14T05:44:44.812Z,9.95
2018-04-14T05:47:18.063Z,9.99
2018-04-14T05:49:52.097Z,10.04
2018-04-14T05:52:25.355Z,10.05
2018-04-14T05:54:59.392Z,10.12
2018-04-14T05:57:32.646Z,10.12
2018-04-14T06:00:05.949Z,10.14
2018-04-14T06:02:39.151Z,10.21
2018-04-14T06:05:12.428Z,10.25
2018-04-14T06:07:59.912Z,10.29
2018-04-14T06:10:33.196Z,10.26
2018-04-14T06:13:06.444Z,10.24
2018-04-14T06:15:39.736Z,10.30
2018-04-14T06:18:12.982Z,10.30
2018-04-14T06:20:46.251Z,10.33
2018-04-14T06:23:19.515Z,10.32
2018-04-14T06:25:52.784Z,10.35
2018-04-14T06:28:26.032Z,10.44
2018-04-14T06:30:59.405Z,10.59
2018-04-14T06:33:33.489Z,10.79
2018-04-14T06:36:06.775Z,10.94
2018-04-14T06:38:40.032Z,11.06
2018-04-14T06:41:13.511Z,11.22
2018-04-14T06:43:46.790Z,11.30
2018-04-14T06:46:20.899Z,11.38
2018-04-14T06:48:54.250Z,11.42
2018-04-14T06:51:27.520Z,11.50
2018-04-14T06:54:01.561Z,11.57
2018-04-14T06:56:34.819Z,11.59
2018-04-14T06:59:08.070Z,11.62
2018-04-14T07:01:41.495Z,11.69
2018-04-14T07:04:15.512Z,11.78
2018-04-14T07:06:49.560Z,11.91
2018-04-14T07:09:40.152Z,12.01
2018-04-14T07:12:13.439Z,12.11
2018-04-14T07:14:46.692Z,12.21
2018-04-14T07:17:20.732Z,12.26
2018-04-14T07:19:53.987Z,12.29
2018-04-14T07:22:28.041Z,12.34
2018-04-14T07:25:01.305Z,12.39
2018-04-14T07:27:34.565Z,12.46
2018-04-14T07:30:07.829Z,12.57
2018-04-14T07:32:41.106Z,12.61
2018-04-14T07:35:15.138Z,12.72
2018-04-14T07:37:48.404Z,12.76
2018-04-14T07:40:25.603Z,12.85
2018-04-14T07:42:58.892Z,12.97
2018-04-14T07:45:32.142Z,13.05
2018-04-14T07:48:16.826Z,13.16
2018-04-14T07:50:50.072Z,13.27
2018-04-14T07:53:23.343Z,13.34
2018-04-14T07:55:56.620Z,13.40
2018-04-14T07:58:29.908Z,13.50
2018-04-14T08:01:03.923Z,13.60
2018-04-14T08:03:37.196Z,13.69
2018-04-14T08:06:11.265Z,13.80
2018-04-14T08:08:45.254Z,13.87
2018-04-14T08:11:18.514Z,13.94
2018-04-14T08:13:52.556Z,14.01
2018-04-14T08:16:25.807Z,14.09
2018-04-14T08:18:59.080Z,14.15
2018-04-14T08:21:32.340Z,14.23
2018-04-14T08:24:05.617Z,14.29
2018-04-14T08:26:38.871Z,14.36
2018-04-14T08:29:12.151Z,14.45
2018-04-14T08:31:45.408Z,14.50
2018-04-14T08:34:18.680Z,14.59
2018-04-14T08:36:51.950Z,14.64
2018-04-14T08:39:25.256Z,14.71
2018-04-14T08:41:58.499Z,14.79
2018-04-14T08:44:31.763Z,14.87
2018-04-14T08:47:05.793Z,14.91
2018-04-14T08:49:39.060Z,14.97
2018-04-14T08:52:12.312Z,15.02
2018-04-14T08:54:45.589Z,15.07
2018-04-14T08:57:18.848Z,14.97
2018-04-14T08:59:52.128Z,15.07
2018-04-14T09:02:25.374Z,15.07
2018-04-14T09:04:58.648Z,15.16
2018-04-14T09:07:31.900Z,15.28
2018-04-14T09:10:05.179Z,15.29
2018-04-14T09:12:38.429Z,15.24
2018-04-14T09:15:15.539Z,15.30
2018-04-14T09:17:48.797Z,15.39
2018-04-14T09:20:22.064Z,15.44
2018-04-14T09:22:55.324Z,15.45
2018-04-14T09:25:28.589Z,15.46
2018-04-14T09:28:01.831Z,15.59
2018-04-14T09:30:35.117Z,15.63
2018-04-14T09:33:08.360Z,15.68
2018-04-14T09:35:41.636Z,15.77
2018-04-14T09:38:14.905Z,15.78
2018-04-14T09:40:48.175Z,15.82
2018-04-14T09:43:21.434Z,15.82
2018-04-14T09:45:55.471Z,15.89
2018-04-14T09:48:28.724Z,16.11
2018-04-14T09:51:02.004Z,16.21
2018-04-14T09:53:35.255Z,16.33
2018-04-14T09:56:08.529Z,16.42
2018-04-14T09:58:41.788Z,16.45
2018-04-14T10:01:21.300Z,16.51
2018-04-14T10:03:54.551Z,16.54
2018-04-14T10:06:27.835Z,16.63
2018-04-14T10:09:01.857Z,16.72
2018-04-14T10:11:35.123Z,16.85
2018-04-14T10:14:09.148Z,16.97
2018-04-14T10:16:43.180Z,16.84
2018-04-14T10:19:16.440Z,16.92
2018-04-14T10:21:49.719Z,17.02
2018-04-14T10:24:22.975Z,17.01
2018-04-14T10:26:56.248Z,17.09
2018-04-14T10:29:29.503Z,17.12
2018-04-14T10:32:02.781Z,17.21
2018-04-14T10:34:36.037Z,17.27
2018-04-14T10:37:09.311Z,17.36
2018-04-14T10:39:43.330Z,17.41
2018-04-14T10:42:16.604Z,17.48
2018-04-14T10:44:50.616Z,17.54
2018-04-14T10:47:24.660Z,17.61
2018-04-14T10:49:57.941Z,17.63
2018-04-14T10:52:31.958Z,17.69
2018-04-14T10:55:05.238Z,17.75
2018-04-14T10:57:39.258Z,17.79
2018-04-14T11:00:12.532Z,17.88
2018-04-14T11:02:46.556Z,17.97
2018-04-14T11:05:20.599Z,18.05
2018-04-14T11:07:53.860Z,18.12
2018-04-14T11:10:27.900Z,18.18
2018-04-14T11:13:01.156Z,18.24
2018-04-14T11:15:35.179Z,18.29
2018-04-14T11:18:09.206Z,18.30
2018-04-14T11:20:42.482Z,18.36
2018-04-14T11:23:16.495Z,18.32
2018-04-14T11:25:50.532Z,18.43
2018-04-14T11:28:23.796Z,18.54
2018-04-14T11:30:57.876Z,18.65
2018-04-14T11:33:31.124Z,18.75
2018-04-14T11:36:04.400Z,18.81
2018-04-14T11:38:37.698Z,18.82
2018-04-14T11:41:11.013Z,18.94
2018-04-14T11:43:44.279Z,19.08
2018-04-14T11:46:18.329Z,19.18
2018-04-14T11:48:52.176Z,19.29
2018-04-14T11:51:25.563Z,19.47
2018-04-14T11:53:58.849Z,19.56
2018-04-14T11:56:32.271Z,19.71
2018-04-14T11:59:05.539Z,19.70
2018-04-14T12:01:38.852Z,19.92
2018-04-14T12:04:12.112Z,20.04
2018-04-14T12:06:45.402Z,20.19
2018-04-14T12:09:18.659Z,20.37
2018-04-14T12:11:51.965Z,20.53
2018-04-14T12:14:25.225Z,20.67
2018-04-14T12:16:58.500Z,20.79
2018-04-14T12:19:31.759Z,20.81
2018-04-14T12:22:05.034Z,21.07
2018-04-14T12:24:38.284Z,21.26
2018-04-14T12:27:11.567Z,21.32
2018-04-14T12:29:44.815Z,21.35
2018-04-14T12:32:18.104Z,21.30
2018-04-14T12:34:51.366Z,21.44
2018-04-14T12:37:24.636Z,21.65
2018-04-14T12:39:57.890Z,21.75
2018-04-14T12:42:31.159Z,21.93
2018-04-14T12:45:04.412Z,22.06
2018-04-14T12:47:37.679Z,22.40
2018-04-14T12:50:10.951Z,22.75
2018-04-14T12:52:44.223Z,23.10
2018-04-14T12:55:17.487Z,23.25
2018-04-14T12:57:50.764Z,23.30
2018-04-14T13:00:24.030Z,23.26
2018-04-14T13:02:57.307Z,23.53
2018-04-14T13:05:30.595Z,23.42
2018-04-14T13:08:03.853Z,23.60
2018-04-14T13:10:37.133Z,23.83
2018-04-14T13:13:10.434Z,23.89
2018-04-14T13:15:43.662Z,23.69
2018-04-14T13:18:16.924Z,24.16
2018-04-14T13:20:50.199Z,24.21
2018-04-14T13:23:23.461Z,24.40
2018-04-14T13:25:56.740Z,24.73
2018-04-14T13:28:30.001Z,25.06
2018-04-14T13:31:03.278Z,24.99
2018-04-14T13:33:36.539Z,25.18
2018-04-14T13:36:09.812Z,25.04
2018-04-14T13:38:43.068Z,25.09
2018-04-14T13:41:16.363Z,24.71
2018-04-14T13:43:49.631Z,24.68
2018-04-14T13:46:23.671Z,25.17
2018-04-14T13:48:56.924Z,25.52
2018-04-14T13:51:30.961Z,25.77
2018-04-14T13:54:04.220Z,25.75
2018-04-14T13:56:37.507Z,26.01
2018-04-14T13:59:10.756Z,26.47
2018-04-14T14:01:44.031Z,26.76
2018-04-14T14:04:18.063Z,26.69
2018-04-14T14:06:51.328Z,26.89
2018-04-14T14:09:25.382Z,26.55
2018-04-14T14:11:58.635Z,26.89
2018-04-14T14:14:32.660Z,27.07
2018-04-14T14:17:05.937Z,26.70
2018-04-14T14:19:39.987Z,26.54
2018-04-14T14:22:13.248Z,27.44
2018-04-14T14:24:47.309Z,27.53
2018-04-14T14:27:20.564Z,27.98
2018-04-14T14:29:53.861Z,28.32
2018-04-14T14:32:27.955Z,28.36
2018-04-14T14:35:01.997Z,28.78
2018-04-14T14:37:35.256Z,28.73
2018-04-14T14:40:08.531Z,28.75
2018-04-14T14:42:41.822Z,29.23
2018-04-14T14:45:15.065Z,28.88
2018-04-14T14:47:48.319Z,29.50
2018-04-14T14:50:26.924Z,29.74
2018-04-14T14:53:00.185Z,30.30
2018-04-14T14:55:33.466Z,30.81
2018-04-14T14:58:06.719Z,31.12
2018-04-14T15:00:39.988Z,31.17
2018-04-14T15:03:13.231Z,31.74
2018-04-14T15:05:47.265Z,32.04
2018-04-14T15:08:20.520Z,32.51
2018-04-14T15:10:54.558Z,32.49
2018-04-14T15:13:27.828Z,32.66
2018-04-14T15:16:01.075Z,33.17
2018-04-14T15:18:34.356Z,33.53
2018-04-14T15:21:07.608Z,33.81
2018-04-14T15:23:41.652Z,33.96
2018-04-14T15:26:14.902Z,33.71
2018-04-14T15:28:48.183Z,33.17
2018-04-14T15:31:21.455Z,32.50
2018-04-14T15:33:54.707Z,31.91
2018-04-14T15:36:28.724Z,30.84
2018-04-14T15:39:02.000Z,29.64
2018-04-14T15:41:36.022Z,28.76
2018-04-14T15:44:10.055Z,28.01
2018-04-14T15:46:43.307Z,27.05
2018-04-14T15:49:16.588Z,26.41
2018-04-14T15:51:49.984Z,26.14
2018-04-14T15:54:23.282Z,25.87
2018-04-14T15:56:56.526Z,25.45
2018-04-14T15:59:29.803Z,25.32
2018-04-14T16:02:03.947Z,25.25
2018-04-14T16:04:37.360Z,25.02
2018-04-14T16:07:10.589Z,25.01
2018-04-14T16:09:43.864Z,24.79
2018-04-14T16:12:17.121Z,25.20
2018-04-14T16:14:50.395Z,25.49
2018-04-14T16:17:24.465Z,25.76
2018-04-14T16:19:57.691Z,25.78
2018-04-14T16:22:30.962Z,25.80
2018-04-14T16:25:04.219Z,25.79
2018-04-14T16:27:37.494Z,25.68
2018-04-14T16:30:10.743Z,25.32
2018-04-14T16:32:44.020Z,24.96
2018-04-14T16:35:17.275Z,24.48
2018-04-14T16:37:50.557Z,24.21
2018-04-14T16:40:24.575Z,23.99
2018-04-14T16:42:57.864Z,23.93
2018-04-14T16:45:31.884Z,23.85
2018-04-14T16:48:05.151Z,23.73
2018-04-14T16:50:39.178Z,23.69
2018-04-14T16:53:13.213Z,23.73
2018-04-14T16:55:46.471Z,23.69
2018-04-14T16:58:19.748Z,23.41
2018-04-14T17:00:52.996Z,23.27
2018-04-14T17:03:26.276Z,23.21
2018-04-14T17:06:00.295Z,23.02
2018-04-14T17:08:33.572Z,22.93
2018-04-14T17:11:06.838Z,22.81
2018-04-14T17:13:40.110Z,22.63
2018-04-14T17:16:13.377Z,22.51
2018-04-14T17:18:46.651Z,22.45
2018-04-14T17:21:20.676Z,22.45
2018-04-14T17:23:53.952Z,22.22
2018-04-14T17:26:27.987Z,22.06
2018-04-14T17:29:01.251Z,21.87
2018-04-14T17:31:35.278Z,21.82
2018-04-14T17:34:08.545Z,21.81
2018-04-14T17:36:42.688Z,21.76
2018-04-14T17:39:15.948Z,21.75
2018-04-14T17:41:49.983Z,21.78
2018-04-14T17:44:23.318Z,21.70
2018-04-14T17:46:56.528Z,21.63
2018-04-14T17:49:29.805Z,21.54
2018-04-14T17:52:03.051Z,21.43
2018-04-14T17:54:37.107Z,21.35
2018-04-14T17:57:10.356Z,21.32
2018-04-14T17:59:44.391Z,21.22
2018-04-14T18:02:17.713Z,21.13
2018-04-14T18:04:50.968Z,20.98
2018-04-14T18:07:24.391Z,20.99
2018-04-14T18:09:57.659Z,20.92
2018-04-14T18:12:31.692Z,20.84
2018-04-14T18:15:04.988Z,20.75
2018-04-14T18:17:38.261Z,20.78
2018-04-14T18:20:11.503Z,20.63
2018-04-14T18:22:44.773Z,20.64
2018-04-14T18:25:18.036Z,20.54
2018-04-14T18:27:52.076Z,20.54
2018-04-14T18:30:25.339Z,20.52
2018-04-14T18:32:59.371Z,20.46
2018-04-14T18:35:32.624Z,20.41
2018-04-14T18:38:05.891Z,20.32
2018-04-14T18:40:39.148Z,20.29
2018-04-14T18:43:12.423Z,20.31
2018-04-14T18:45:45.675Z,20.30
2018-04-14T18:48:18.939Z,20.24
2018-04-14T18:50:52.205Z,20.16
2018-04-14T18:53:26.238Z,20.12
2018-04-14T18:55:59.748Z,20.11
2018-04-14T18:58:33.016Z,20.12
2018-04-14T19:01:06.280Z,20.07
2018-04-14T19:03:39.596Z,20.06
2018-04-14T19:06:12.851Z,20.06
2018-04-14T19:08:46.131Z,20.03
2018-04-14T19:11:19.387Z,19.96
2018-04-14T19:13:52.664Z,19.93
2018-04-14T19:16:26.963Z,19.82
2018-04-14T19:19:00.300Z,19.74
2018-04-14T19:21:33.563Z,19.66
2018-04-14T19:24:07.944Z,19.60
2018-04-14T19:26:41.200Z,19.55
2018-04-14T19:29:15.227Z,19.47
2018-04-14T19:31:48.492Z,19.44
2018-04-14T19:34:22.532Z,19.38
2018-04-14T19:36:55.816Z,19.32
2018-04-14T19:39:29.075Z,19.24
2018-04-14T19:42:02.356Z,19.13
2018-04-14T19:44:35.618Z,19.09
2018-04-14T19:47:08.889Z,19.01
2018-04-14T19:49:42.909Z,18.94
2018-04-14T19:52:16.184Z,18.85
2018-04-14T19:54:50.203Z,18.75
2018-04-14T19:57:23.471Z,18.68
2018-04-14T19:59:56.736Z,18.64
2018-04-14T20:02:30.008Z,18.59
2018-04-14T20:05:03.268Z,18.57
2018-04-14T20:07:37.307Z,18.53
2018-04-14T20:10:10.560Z,18.48
2018-04-14T20:12:43.837Z,18.36
2018-04-14T20:15:17.093Z,18.34
2018-04-14T20:17:50.362Z,18.29
2018-04-14T20:20:23.633Z,18.20
2018-04-14T20:22:56.913Z,18.15
2018-04-14T20:25:30.185Z,18.09
2018-04-14T20:28:03.449Z,18.04
2018-04-14T20:30:36.827Z,17.99
2018-04-14T20:33:10.868Z,17.95
2018-04-14T20:35:44.129Z,17.92
2018-04-14T20:38:18.166Z,17.91
2018-04-14T20:40:51.430Z,17.88
2018-04-14T20:43:24.704Z,17.86
2018-04-14T20:45:57.960Z,17.81
2018-04-14T20:48:31.243Z,17.74
2018-04-14T20:51:04.492Z,17.69
2018-04-14T20:53:37.764Z,17.65
2018-04-14T20:56:11.023Z,17.61
2018-04-14T20:58:44.303Z,17.59
2018-04-14T21:01:17.548Z,17.49
2018-04-14T21:03:50.827Z,17.43
2018-04-14T21:06:24.080Z,17.38
2018-04-14T21:08:57.353Z,17.34
2018-04-14T21:11:30.603Z,17.27
2018-04-14T21:14:03.876Z,17.20
2018-04-14T21:16:37.132Z,17.14
2018-04-14T21:19:10.412Z,17.09
2018-04-14T21:21:43.671Z,17.07
2018-04-14T21:24:16.943Z,17.04
2018-04-14T21:26:50.207Z,17.02
2018-04-14T21:29:23.504Z,17.03
2018-04-14T21:31:56.773Z,16.98
